Grand Ace2 — D7RC — position and weather

sailwx.info

Track history (hours):
 
Tides and Currents Weather Stations Pressure Air Temp Water Temp Dewpoint Dewpoint Depression Visibility Wind Speed Wind Dir Waves Ship Positions

Grand Ace2

Last reported at 2017-Oct-12 10:30 UTC. Time now 2017-Oct-19 15:06 UTC.
Position N 29°39' W 093°50'.

Length 183 m; draft 11.2 m.

Type: Tanker. MMSI: 440817000.

Date/timePositionNaut miles runAvg speedWind from/ knotsBaromVisibWave heightAir tempDewpointWater temp
2017-Oct-12 10:30N 29°39' W 093°50'510.0
2017-Oct-12 10:00N 29°43' W 093°52'4 8.4
2017-Oct-12 09:30N 29°46' W 093°55'4 7.5
2017-Oct-12 09:00N 29°49' W 093°58'3 5.8
2017-Oct-12 08:30N 29°52' W 093°56'4 7.3
2017-Oct-12 08:00N 29°55' W 093°53'4 5.0
2017-Oct-12 07:11N 29°59' W 093°52'1 5.9
2017-Oct-12 07:00N 29°59' W 093°54'3 6.3
2017-Oct-12 06:29N 29°60' W 093°57'3 5.2
2017-Oct-12 06:00N 30°01' W 093°60'2 4.8
2017-Oct-12 05:30N 30°02' W 094°02'  
2017-Oct-09 03:18N 29°59' W 093°52'2 6.9
2017-Oct-09 02:58N 29°56' W 093°52'2 4.7
2017-Oct-09 02:30N 29°55' W 093°54'4 8.4
2017-Oct-09 02:00N 29°51' W 093°57'4 7.4
2017-Oct-09 01:30N 29°48' W 093°57'4 7.7
2017-Oct-09 01:00N 29°45' W 093°53'5 9.9
2017-Oct-09 00:30N 29°41' W 093°50'  
Track history (hours):
 
Tides and Currents Weather Stations Pressure Air Temp Water Temp Dewpoint Dewpoint Depression Visibility Wind Speed Wind Dir Waves Ship Positions

Grand Ace2

Last reported at 2017-Oct-12 10:30 UTC. Time now 2017-Oct-19 15:06 UTC.
Position N 29°39' W 093°50'.

Length 183 m; draft 11.2 m.

Type: Tanker. MMSI: 440817000.

Date/timePositionNaut miles runAvg speedWind from/ knotsBaromVisibWave heightAir tempDewpointWater temp
2017-Oct-12 10:30N 29°39' W 093°50'510.0
2017-Oct-12 10:00N 29°43' W 093°52'4 8.4
2017-Oct-12 09:30N 29°46' W 093°55'4 7.5
2017-Oct-12 09:00N 29°49' W 093°58'3 5.8
2017-Oct-12 08:30N 29°52' W 093°56'4 7.3
2017-Oct-12 08:00N 29°55' W 093°53'4 5.0
2017-Oct-12 07:11N 29°59' W 093°52'1 5.9
2017-Oct-12 07:00N 29°59' W 093°54'3 6.3
2017-Oct-12 06:29N 29°60' W 093°57'3 5.2
2017-Oct-12 06:00N 30°01' W 093°60'2 4.8
2017-Oct-12 05:30N 30°02' W 094°02'  
2017-Oct-09 03:18N 29°59' W 093°52'2 6.9
2017-Oct-09 02:58N 29°56' W 093°52'2 4.7
2017-Oct-09 02:30N 29°55' W 093°54'4 8.4
2017-Oct-09 02:00N 29°51' W 093°57'4 7.4
2017-Oct-09 01:30N 29°48' W 093°57'4 7.7
2017-Oct-09 01:00N 29°45' W 093°53'5 9.9
2017-Oct-09 00:30N 29°41' W 093°50'  

Dump ship's entire track history